sensor_id;sensor_type;location;lat;lon;timestamp;P1;durP1;ratioP1;P2;durP2;ratioP2
45836;SDS011;31548;51.420;-0.040;2023-02-28T00:01:25;2.75;;;0.50;;
45836;SDS011;31548;51.420;-0.040;2023-02-28T00:03:54;2.75;;;0.60;;
45836;SDS011;31548;51.420;-0.040;2023-02-28T00:06:22;2.72;;;0.70;;
45836;SDS011;31548;51.420;-0.040;2023-02-28T00:08:50;1.48;;;0.50;;
45836;SDS011;31548;51.420;-0.040;2023-02-28T00:11:18;4.53;;;0.40;;
45836;SDS011;31548;51.420;-0.040;2023-02-28T00:13:46;1.90;;;0.43;;
45836;SDS011;31548;51.420;-0.040;2023-02-28T00:16:16;2.67;;;0.63;;
45836;SDS011;31548;51.420;-0.040;2023-02-28T00:18:46;4.95;;;0.50;;
45836;SDS011;31548;51.420;-0.040;2023-02-28T00:21:14;3.28;;;0.55;;
45836;SDS011;31548;51.420;-0.040;2023-02-28T00:23:43;1.10;;;0.50;;
45836;SDS011;31548;51.420;-0.040;2023-02-28T00:26:10;1.77;;;0.47;;
45836;SDS011;31548;51.420;-0.040;2023-02-28T00:28:40;7.05;;;0.50;;
45836;SDS011;31548;51.420;-0.040;2023-02-28T00:31:07;2.42;;;0.40;;
45836;SDS011;31548;51.420;-0.040;2023-02-28T00:33:35;2.30;;;0.57;;
45836;SDS011;31548;51.420;-0.040;2023-02-28T00:36:03;4.65;;;0.68;;
45836;SDS011;31548;51.420;-0.040;2023-02-28T00:38:31;1.42;;;0.50;;
45836;SDS011;31548;51.420;-0.040;2023-02-28T00:40:59;5.55;;;0.85;;
45836;SDS011;31548;51.420;-0.040;2023-02-28T00:43:32;2.20;;;0.40;;
45836;SDS011;31548;51.420;-0.040;2023-02-28T00:46:00;2.65;;;0.50;;
45836;SDS011;31548;51.420;-0.040;2023-02-28T00:48:29;3.40;;;0.60;;
45836;SDS011;31548;51.420;-0.040;2023-02-28T00:50:57;1.30;;;0.40;;
45836;SDS011;31548;51.420;-0.040;2023-02-28T00:53:24;2.13;;;0.50;;
45836;SDS011;31548;51.420;-0.040;2023-02-28T00:55:52;1.33;;;0.40;;
45836;SDS011;31548;51.420;-0.040;2023-02-28T00:58:20;4.28;;;0.50;;
45836;SDS011;31548;51.420;-0.040;2023-02-28T01:00:47;5.85;;;0.60;;
45836;SDS011;31548;51.420;-0.040;2023-02-28T01:03:16;4.00;;;0.60;;
45836;SDS011;31548;51.420;-0.040;2023-02-28T01:05:45;2.75;;;0.40;;
45836;SDS011;31548;51.420;-0.040;2023-02-28T01:08:13;3.92;;;0.50;;
45836;SDS011;31548;51.420;-0.040;2023-02-28T01:10:41;2.17;;;0.43;;
45836;SDS011;31548;51.420;-0.040;2023-02-28T01:13:09;9.90;;;0.65;;
45836;SDS011;31548;51.420;-0.040;2023-02-28T01:15:37;4.85;;;0.50;;
45836;SDS011;31548;51.420;-0.040;2023-02-28T01:18:08;2.45;;;0.50;;
45836;SDS011;31548;51.420;-0.040;2023-02-28T01:20:38;4.88;;;0.60;;
45836;SDS011;31548;51.420;-0.040;2023-02-28T01:23:05;8.50;;;1.88;;
45836;SDS011;31548;51.420;-0.040;2023-02-28T01:25:36;4.03;;;0.60;;
45836;SDS011;31548;51.420;-0.040;2023-02-28T01:28:08;2.60;;;0.50;;
45836;SDS011;31548;51.420;-0.040;2023-02-28T01:30:36;4.32;;;0.50;;
45836;SDS011;31548;51.420;-0.040;2023-02-28T01:33:05;5.40;;;0.70;;
45836;SDS011;31548;51.420;-0.040;2023-02-28T01:35:35;4.35;;;0.50;;
45836;SDS011;31548;51.420;-0.040;2023-02-28T01:38:03;4.10;;;0.60;;
45836;SDS011;31548;51.420;-0.040;2023-02-28T01:40:47;0.60;;;0.40;;
45836;SDS011;31548;51.420;-0.040;2023-02-28T01:43:22;7.00;;;0.80;;
45836;SDS011;31548;51.420;-0.040;2023-02-28T01:45:54;2.63;;;0.70;;
45836;SDS011;31548;51.420;-0.040;2023-02-28T01:48:28;4.32;;;0.50;;
45836;SDS011;31548;51.420;-0.040;2023-02-28T01:51:05;1.48;;;0.50;;
45836;SDS011;31548;51.420;-0.040;2023-02-28T01:53:42;3.38;;;0.40;;
45836;SDS011;31548;51.420;-0.040;2023-02-28T01:56:15;5.40;;;0.50;;
45836;SDS011;31548;51.420;-0.040;2023-02-28T01:58:49;7.75;;;0.60;;
45836;SDS011;31548;51.420;-0.040;2023-02-28T02:01:19;5.97;;;1.00;;
45836;SDS011;31548;51.420;-0.040;2023-02-28T02:03:56;3.17;;;0.50;;
45836;SDS011;31548;51.420;-0.040;2023-02-28T02:06:45;7.05;;;0.50;;
45836;SDS011;31548;51.420;-0.040;2023-02-28T02:09:13;3.33;;;0.40;;
45836;SDS011;31548;51.420;-0.040;2023-02-28T02:11:41;3.40;;;0.52;;
45836;SDS011;31548;51.420;-0.040;2023-02-28T02:14:37;4.32;;;0.50;;
45836;SDS011;31548;51.420;-0.040;2023-02-28T02:20:07;2.45;;;0.50;;
45836;SDS011;31548;51.420;-0.040;2023-02-28T02:23:07;7.00;;;0.50;;
45836;SDS011;31548;51.420;-0.040;2023-02-28T02:37:00;4.68;;;0.82;;
45836;SDS011;31548;51.420;-0.040;2023-02-28T02:42:18;3.08;;;0.60;;
45836;SDS011;31548;51.420;-0.040;2023-02-28T02:44:57;2.78;;;0.50;;
45836;SDS011;31548;51.420;-0.040;2023-02-28T02:47:29;1.35;;;0.60;;
45836;SDS011;31548;51.420;-0.040;2023-02-28T02:49:59;5.18;;;0.95;;
45836;SDS011;31548;51.420;-0.040;2023-02-28T02:52:38;2.10;;;0.73;;
45836;SDS011;31548;51.420;-0.040;2023-02-28T02:55:13;5.53;;;1.40;;
45836;SDS011;31548;51.420;-0.040;2023-02-28T02:57:47;7.88;;;0.80;;
45836;SDS011;31548;51.420;-0.040;2023-02-28T03:00:19;9.77;;;0.80;;
45836;SDS011;31548;51.420;-0.040;2023-02-28T03:02:50;5.57;;;1.00;;
45836;SDS011;31548;51.420;-0.040;2023-02-28T03:05:25;5.78;;;0.90;;
45836;SDS011;31548;51.420;-0.040;2023-02-28T03:07:56;5.43;;;0.85;;
45836;SDS011;31548;51.420;-0.040;2023-02-28T03:11:06;9.85;;;1.33;;
45836;SDS011;31548;51.420;-0.040;2023-02-28T03:13:29;5.83;;;1.03;;
45836;SDS011;31548;51.420;-0.040;2023-02-28T03:19:11;6.32;;;1.52;;
45836;SDS011;31548;51.420;-0.040;2023-02-28T03:27:34;6.32;;;0.93;;
45836;SDS011;31548;51.420;-0.040;2023-02-28T03:30:10;7.70;;;1.48;;
45836;SDS011;31548;51.420;-0.040;2023-02-28T03:32:54;9.90;;;1.77;;
45836;SDS011;31548;51.420;-0.040;2023-02-28T03:35:28;12.02;;;1.13;;
45836;SDS011;31548;51.420;-0.040;2023-02-28T03:38:02;8.20;;;1.40;;
45836;SDS011;31548;51.420;-0.040;2023-02-28T03:40:33;6.43;;;1.53;;
45836;SDS011;31548;51.420;-0.040;2023-02-28T03:43:07;6.07;;;1.15;;
45836;SDS011;31548;51.420;-0.040;2023-02-28T03:45:39;14.50;;;1.10;;
45836;SDS011;31548;51.420;-0.040;2023-02-28T03:48:23;3.75;;;0.88;;
45836;SDS011;31548;51.420;-0.040;2023-02-28T03:50:56;9.13;;;2.22;;
45836;SDS011;31548;51.420;-0.040;2023-02-28T03:53:35;3.45;;;0.90;;
45836;SDS011;31548;51.420;-0.040;2023-02-28T03:56:08;8.13;;;1.13;;
45836;SDS011;31548;51.420;-0.040;2023-02-28T04:01:39;6.82;;;1.38;;
45836;SDS011;31548;51.420;-0.040;2023-02-28T04:04:09;6.75;;;1.05;;
45836;SDS011;31548;51.420;-0.040;2023-02-28T04:06:38;8.30;;;1.00;;
45836;SDS011;31548;51.420;-0.040;2023-02-28T04:09:08;5.35;;;1.33;;
45836;SDS011;31548;51.420;-0.040;2023-02-28T04:11:39;8.23;;;1.02;;
45836;SDS011;31548;51.420;-0.040;2023-02-28T04:14:09;4.65;;;0.80;;
45836;SDS011;31548;51.420;-0.040;2023-02-28T04:16:38;3.15;;;0.68;;
45836;SDS011;31548;51.420;-0.040;2023-02-28T04:19:07;2.92;;;0.60;;
45836;SDS011;31548;51.420;-0.040;2023-02-28T04:21:38;5.32;;;0.70;;
45836;SDS011;31548;51.420;-0.040;2023-02-28T04:24:10;4.60;;;0.80;;
45836;SDS011;31548;51.420;-0.040;2023-02-28T04:26:43;3.92;;;1.00;;
45836;SDS011;31548;51.420;-0.040;2023-02-28T04:29:13;5.53;;;0.80;;
45836;SDS011;31548;51.420;-0.040;2023-02-28T04:31:45;7.75;;;0.82;;
45836;SDS011;31548;51.420;-0.040;2023-02-28T04:34:12;5.80;;;0.63;;
45836;SDS011;31548;51.420;-0.040;2023-02-28T04:36:40;2.15;;;0.70;;
45836;SDS011;31548;51.420;-0.040;2023-02-28T04:39:07;6.55;;;0.80;;
45836;SDS011;31548;51.420;-0.040;2023-02-28T04:41:36;8.00;;;0.93;;
45836;SDS011;31548;51.420;-0.040;2023-02-28T04:44:03;5.95;;;0.85;;
45836;SDS011;31548;51.420;-0.040;2023-02-28T04:46:31;7.95;;;1.67;;
45836;SDS011;31548;51.420;-0.040;2023-02-28T04:48:58;7.30;;;0.90;;
45836;SDS011;31548;51.420;-0.040;2023-02-28T04:51:25;7.57;;;0.70;;
45836;SDS011;31548;51.420;-0.040;2023-02-28T04:53:53;6.38;;;1.40;;
45836;SDS011;31548;51.420;-0.040;2023-02-28T04:56:21;5.30;;;1.00;;
45836;SDS011;31548;51.420;-0.040;2023-02-28T04:58:49;7.55;;;0.88;;
45836;SDS011;31548;51.420;-0.040;2023-02-28T05:01:19;4.95;;;0.93;;
45836;SDS011;31548;51.420;-0.040;2023-02-28T05:03:49;8.05;;;1.50;;
45836;SDS011;31548;51.420;-0.040;2023-02-28T05:06:18;7.78;;;1.05;;
45836;SDS011;31548;51.420;-0.040;2023-02-28T05:08:47;7.30;;;1.08;;
45836;SDS011;31548;51.420;-0.040;2023-02-28T05:11:16;6.70;;;1.65;;
45836;SDS011;31548;51.420;-0.040;2023-02-28T05:13:46;4.93;;;1.30;;
45836;SDS011;31548;51.420;-0.040;2023-02-28T05:16:14;3.17;;;1.27;;
45836;SDS011;31548;51.420;-0.040;2023-02-28T05:18:42;7.93;;;1.83;;
45836;SDS011;31548;51.420;-0.040;2023-02-28T05:21:22;6.80;;;1.10;;
45836;SDS011;31548;51.420;-0.040;2023-02-28T05:23:59;3.63;;;1.15;;
45836;SDS011;31548;51.420;-0.040;2023-02-28T05:26:28;12.68;;;1.80;;
45836;SDS011;31548;51.420;-0.040;2023-02-28T05:28:56;9.10;;;2.50;;
45836;SDS011;31548;51.420;-0.040;2023-02-28T05:31:24;10.10;;;2.28;;
45836;SDS011;31548;51.420;-0.040;2023-02-28T05:33:52;8.00;;;2.15;;
45836;SDS011;31548;51.420;-0.040;2023-02-28T05:36:20;9.57;;;2.00;;
45836;SDS011;31548;51.420;-0.040;2023-02-28T05:38:48;9.25;;;1.90;;
45836;SDS011;31548;51.420;-0.040;2023-02-28T05:41:16;10.38;;;1.92;;
45836;SDS011;31548;51.420;-0.040;2023-02-28T05:43:46;10.65;;;1.45;;
45836;SDS011;31548;51.420;-0.040;2023-02-28T05:46:14;5.57;;;1.63;;
45836;SDS011;31548;51.420;-0.040;2023-02-28T05:48:42;5.95;;;2.38;;
45836;SDS011;31548;51.420;-0.040;2023-02-28T05:51:12;7.13;;;1.95;;
45836;SDS011;31548;51.420;-0.040;2023-02-28T05:53:39;5.13;;;2.25;;
45836;SDS011;31548;51.420;-0.040;2023-02-28T05:56:06;6.28;;;1.67;;
45836;SDS011;31548;51.420;-0.040;2023-02-28T05:58:34;2.65;;;1.50;;
45836;SDS011;31548;51.420;-0.040;2023-02-28T06:01:18;3.72;;;1.30;;
45836;SDS011;31548;51.420;-0.040;2023-02-28T06:04:08;15.73;;;3.08;;
45836;SDS011;31548;51.420;-0.040;2023-02-28T06:06:54;8.68;;;2.47;;
45836;SDS011;31548;51.420;-0.040;2023-02-28T06:09:24;7.68;;;3.03;;
45836;SDS011;31548;51.420;-0.040;2023-02-28T06:11:51;5.25;;;2.25;;
45836;SDS011;31548;51.420;-0.040;2023-02-28T06:14:19;4.50;;;2.00;;
45836;SDS011;31548;51.420;-0.040;2023-02-28T06:16:47;8.85;;;3.05;;
45836;SDS011;31548;51.420;-0.040;2023-02-28T06:19:14;7.22;;;3.17;;
45836;SDS011;31548;51.420;-0.040;2023-02-28T06:21:42;3.63;;;1.85;;
45836;SDS011;31548;51.420;-0.040;2023-02-28T06:24:10;7.65;;;2.38;;
45836;SDS011;31548;51.420;-0.040;2023-02-28T06:26:37;9.15;;;2.28;;
45836;SDS011;31548;51.420;-0.040;2023-02-28T06:29:05;11.73;;;3.72;;
45836;SDS011;31548;51.420;-0.040;2023-02-28T06:31:32;13.10;;;3.08;;
45836;SDS011;31548;51.420;-0.040;2023-02-28T06:34:00;11.65;;;3.72;;
45836;SDS011;31548;51.420;-0.040;2023-02-28T06:36:27;19.17;;;4.55;;
45836;SDS011;31548;51.420;-0.040;2023-02-28T06:38:54;9.85;;;2.95;;
45836;SDS011;31548;51.420;-0.040;2023-02-28T06:41:26;7.53;;;3.55;;
45836;SDS011;31548;51.420;-0.040;2023-02-28T06:43:54;12.50;;;3.90;;
45836;SDS011;31548;51.420;-0.040;2023-02-28T06:46:22;12.68;;;3.00;;
45836;SDS011;31548;51.420;-0.040;2023-02-28T06:48:50;11.80;;;4.13;;
45836;SDS011;31548;51.420;-0.040;2023-02-28T06:51:18;6.25;;;3.00;;
45836;SDS011;31548;51.420;-0.040;2023-02-28T06:53:50;8.50;;;3.15;;
45836;SDS011;31548;51.420;-0.040;2023-02-28T06:56:18;12.07;;;3.25;;
45836;SDS011;31548;51.420;-0.040;2023-02-28T06:58:50;8.43;;;2.55;;
45836;SDS011;31548;51.420;-0.040;2023-02-28T07:01:19;8.02;;;2.67;;
45836;SDS011;31548;51.420;-0.040;2023-02-28T07:03:49;8.52;;;2.80;;
45836;SDS011;31548;51.420;-0.040;2023-02-28T07:06:19;4.40;;;2.63;;
45836;SDS011;31548;51.420;-0.040;2023-02-28T07:08:49;11.35;;;3.25;;
45836;SDS011;31548;51.420;-0.040;2023-02-28T07:11:18;8.40;;;2.08;;
45836;SDS011;31548;51.420;-0.040;2023-02-28T07:13:46;7.45;;;3.00;;
45836;SDS011;31548;51.420;-0.040;2023-02-28T07:16:14;6.40;;;2.63;;
45836;SDS011;31548;51.420;-0.040;2023-02-28T07:18:41;4.88;;;2.47;;
45836;SDS011;31548;51.420;-0.040;2023-02-28T07:21:09;8.68;;;2.75;;
45836;SDS011;31548;51.420;-0.040;2023-02-28T07:23:38;12.30;;;3.17;;
45836;SDS011;31548;51.420;-0.040;2023-02-28T07:26:06;6.15;;;2.58;;
45836;SDS011;31548;51.420;-0.040;2023-02-28T07:28:38;7.60;;;3.40;;
45836;SDS011;31548;51.420;-0.040;2023-02-28T07:31:05;8.45;;;3.10;;
45836;SDS011;31548;51.420;-0.040;2023-02-28T07:33:33;7.45;;;2.75;;
45836;SDS011;31548;51.420;-0.040;2023-02-28T07:36:02;10.85;;;3.83;;
45836;SDS011;31548;51.420;-0.040;2023-02-28T07:38:35;10.48;;;3.22;;
45836;SDS011;31548;51.420;-0.040;2023-02-28T07:41:02;8.35;;;3.05;;
45836;SDS011;31548;51.420;-0.040;2023-02-28T07:43:34;12.40;;;3.95;;
45836;SDS011;31548;51.420;-0.040;2023-02-28T07:46:06;4.05;;;2.53;;
45836;SDS011;31548;51.420;-0.040;2023-02-28T07:48:35;13.13;;;3.65;;
45836;SDS011;31548;51.420;-0.040;2023-02-28T07:51:03;12.18;;;4.88;;
45836;SDS011;31548;51.420;-0.040;2023-02-28T07:53:31;10.70;;;3.97;;
45836;SDS011;31548;51.420;-0.040;2023-02-28T07:55:59;12.50;;;3.28;;
45836;SDS011;31548;51.420;-0.040;2023-02-28T07:58:28;10.18;;;3.90;;
45836;SDS011;31548;51.420;-0.040;2023-02-28T08:00:55;9.68;;;3.10;;
45836;SDS011;31548;51.420;-0.040;2023-02-28T08:03:23;5.72;;;2.83;;
45836;SDS011;31548;51.420;-0.040;2023-02-28T08:05:51;10.25;;;3.65;;
45836;SDS011;31548;51.420;-0.040;2023-02-28T08:08:19;13.38;;;3.58;;
45836;SDS011;31548;51.420;-0.040;2023-02-28T08:10:46;11.32;;;3.08;;
45836;SDS011;31548;51.420;-0.040;2023-02-28T08:13:14;19.77;;;4.55;;
45836;SDS011;31548;51.420;-0.040;2023-02-28T08:15:42;11.25;;;2.90;;
45836;SDS011;31548;51.420;-0.040;2023-02-28T08:18:09;5.57;;;2.90;;
45836;SDS011;31548;51.420;-0.040;2023-02-28T08:20:36;13.75;;;3.67;;
45836;SDS011;31548;51.420;-0.040;2023-02-28T08:23:04;16.80;;;3.20;;
45836;SDS011;31548;51.420;-0.040;2023-02-28T08:25:31;7.05;;;2.97;;
45836;SDS011;31548;51.420;-0.040;2023-02-28T08:27:58;8.73;;;2.55;;
45836;SDS011;31548;51.420;-0.040;2023-02-28T08:30:25;6.60;;;2.30;;
45836;SDS011;31548;51.420;-0.040;2023-02-28T08:32:52;14.07;;;2.22;;
45836;SDS011;31548;51.420;-0.040;2023-02-28T08:35:21;4.47;;;1.70;;
45836;SDS011;31548;51.420;-0.040;2023-02-28T08:37:49;8.18;;;2.28;;
45836;SDS011;31548;51.420;-0.040;2023-02-28T08:40:16;10.50;;;2.05;;
45836;SDS011;31548;51.420;-0.040;2023-02-28T08:42:47;9.23;;;2.15;;
45836;SDS011;31548;51.420;-0.040;2023-02-28T08:45:14;6.28;;;1.90;;
45836;SDS011;31548;51.420;-0.040;2023-02-28T08:47:41;7.43;;;2.17;;
45836;SDS011;31548;51.420;-0.040;2023-02-28T08:50:09;9.45;;;1.80;;
45836;SDS011;31548;51.420;-0.040;2023-02-28T08:52:37;4.43;;;1.55;;
45836;SDS011;31548;51.420;-0.040;2023-02-28T08:55:05;7.18;;;2.42;;
45836;SDS011;31548;51.420;-0.040;2023-02-28T08:57:32;6.13;;;1.65;;
45836;SDS011;31548;51.420;-0.040;2023-02-28T08:59:59;5.00;;;1.70;;
45836;SDS011;31548;51.420;-0.040;2023-02-28T09:02:31;21.23;;;2.50;;
45836;SDS011;31548;51.420;-0.040;2023-02-28T09:04:58;6.63;;;1.05;;
45836;SDS011;31548;51.420;-0.040;2023-02-28T09:07:25;4.47;;;1.15;;
45836;SDS011;31548;51.420;-0.040;2023-02-28T09:09:53;3.38;;;1.63;;
45836;SDS011;31548;51.420;-0.040;2023-02-28T09:12:21;8.52;;;1.45;;
45836;SDS011;31548;51.420;-0.040;2023-02-28T09:14:51;3.47;;;1.17;;
45836;SDS011;31548;51.420;-0.040;2023-02-28T09:17:19;5.28;;;1.70;;
45836;SDS011;31548;51.420;-0.040;2023-02-28T09:19:49;8.02;;;1.08;;
45836;SDS011;31548;51.420;-0.040;2023-02-28T09:22:17;4.18;;;1.50;;
45836;SDS011;31548;51.420;-0.040;2023-02-28T09:24:44;3.30;;;1.02;;
45836;SDS011;31548;51.420;-0.040;2023-02-28T09:27:11;4.85;;;0.90;;
45836;SDS011;31548;51.420;-0.040;2023-02-28T09:29:39;1.52;;;0.60;;
45836;SDS011;31548;51.420;-0.040;2023-02-28T09:32:06;2.65;;;0.88;;
45836;SDS011;31548;51.420;-0.040;2023-02-28T09:34:33;3.45;;;1.33;;
45836;SDS011;31548;51.420;-0.040;2023-02-28T09:37:03;5.55;;;0.88;;
45836;SDS011;31548;51.420;-0.040;2023-02-28T09:39:31;5.53;;;1.20;;
45836;SDS011;31548;51.420;-0.040;2023-02-28T09:41:58;6.55;;;0.90;;
45836;SDS011;31548;51.420;-0.040;2023-02-28T09:47:10;7.30;;;1.23;;
45836;SDS011;31548;51.420;-0.040;2023-02-28T09:49:48;2.17;;;1.00;;
45836;SDS011;31548;51.420;-0.040;2023-02-28T09:52:20;2.72;;;1.10;;
45836;SDS011;31548;51.420;-0.040;2023-02-28T09:54:51;3.65;;;1.17;;
45836;SDS011;31548;51.420;-0.040;2023-02-28T09:57:21;2.45;;;0.93;;
45836;SDS011;31548;51.420;-0.040;2023-02-28T10:02:57;5.25;;;1.83;;
45836;SDS011;31548;51.420;-0.040;2023-02-28T10:05:47;8.18;;;1.10;;
45836;SDS011;31548;51.420;-0.040;2023-02-28T10:08:22;10.38;;;1.38;;
45836;SDS011;31548;51.420;-0.040;2023-02-28T10:11:02;3.88;;;0.60;;
45836;SDS011;31548;51.420;-0.040;2023-02-28T10:16:32;2.17;;;0.80;;
45836;SDS011;31548;51.420;-0.040;2023-02-28T10:22:03;3.70;;;2.05;;
45836;SDS011;31548;51.420;-0.040;2023-02-28T10:27:15;2.97;;;0.98;;
45836;SDS011;31548;51.420;-0.040;2023-02-28T10:29:46;4.72;;;1.23;;
45836;SDS011;31548;51.420;-0.040;2023-02-28T10:32:25;9.20;;;0.73;;
45836;SDS011;31548;51.420;-0.040;2023-02-28T10:37:26;3.72;;;1.55;;
45836;SDS011;31548;51.420;-0.040;2023-02-28T10:39:54;3.42;;;1.00;;
45836;SDS011;31548;51.420;-0.040;2023-02-28T10:42:26;2.83;;;1.08;;
45836;SDS011;31548;51.420;-0.040;2023-02-28T10:56:27;9.00;;;1.55;;
45836;SDS011;31548;51.420;-0.040;2023-02-28T11:01:47;8.88;;;2.03;;
45836;SDS011;31548;51.420;-0.040;2023-02-28T11:06:56;1.42;;;0.82;;
45836;SDS011;31548;51.420;-0.040;2023-02-28T11:09:38;1.88;;;0.85;;
45836;SDS011;31548;51.420;-0.040;2023-02-28T11:12:07;2.05;;;0.50;;
45836;SDS011;31548;51.420;-0.040;2023-02-28T11:14:48;1.75;;;0.60;;
45836;SDS011;31548;51.420;-0.040;2023-02-28T11:17:22;3.70;;;0.93;;
45836;SDS011;31548;51.420;-0.040;2023-02-28T11:20:04;4.72;;;0.70;;
45836;SDS011;31548;51.420;-0.040;2023-02-28T11:22:35;4.68;;;0.90;;
45836;SDS011;31548;51.420;-0.040;2023-02-28T11:25:09;1.65;;;0.95;;
45836;SDS011;31548;51.420;-0.040;2023-02-28T11:27:47;0.70;;;0.60;;
45836;SDS011;31548;51.420;-0.040;2023-02-28T11:30:33;2.60;;;0.63;;
45836;SDS011;31548;51.420;-0.040;2023-02-28T11:33:23;4.95;;;0.70;;
45836;SDS011;31548;51.420;-0.040;2023-02-28T11:35:51;2.05;;;0.60;;
45836;SDS011;31548;51.420;-0.040;2023-02-28T11:38:19;7.60;;;0.95;;
45836;SDS011;31548;51.420;-0.040;2023-02-28T11:43:34;5.80;;;1.35;;
45836;SDS011;31548;51.420;-0.040;2023-02-28T11:51:24;6.90;;;0.80;;
45836;SDS011;31548;51.420;-0.040;2023-02-28T11:56:44;7.70;;;0.70;;
45836;SDS011;31548;51.420;-0.040;2023-02-28T12:10:22;0.98;;;0.60;;
45836;SDS011;31548;51.420;-0.040;2023-02-28T12:21:08;2.40;;;1.05;;
45836;SDS011;31548;51.420;-0.040;2023-02-28T12:29:10;7.22;;;1.00;;
45836;SDS011;31548;51.420;-0.040;2023-02-28T12:31:48;2.33;;;0.50;;
45836;SDS011;31548;51.420;-0.040;2023-02-28T12:34:41;3.20;;;0.90;;
45836;SDS011;31548;51.420;-0.040;2023-02-28T12:37:13;23.67;;;1.60;;
45836;SDS011;31548;51.420;-0.040;2023-02-28T12:39:45;7.30;;;1.15;;
45836;SDS011;31548;51.420;-0.040;2023-02-28T12:42:19;2.08;;;0.80;;
45836;SDS011;31548;51.420;-0.040;2023-02-28T12:44:56;3.90;;;0.80;;
45836;SDS011;31548;51.420;-0.040;2023-02-28T12:47:29;1.85;;;0.75;;
45836;SDS011;31548;51.420;-0.040;2023-02-28T12:50:02;3.97;;;1.23;;
45836;SDS011;31548;51.420;-0.040;2023-02-28T12:52:47;3.85;;;0.90;;
45836;SDS011;31548;51.420;-0.040;2023-02-28T13:09:35;5.88;;;0.77;;
45836;SDS011;31548;51.420;-0.040;2023-02-28T13:12:14;4.20;;;0.80;;
45836;SDS011;31548;51.420;-0.040;2023-02-28T13:14:43;2.08;;;0.60;;
45836;SDS011;31548;51.420;-0.040;2023-02-28T13:17:11;6.60;;;0.77;;
45836;SDS011;31548;51.420;-0.040;2023-02-28T13:19:46;2.33;;;0.88;;
45836;SDS011;31548;51.420;-0.040;2023-02-28T13:24:53;5.75;;;0.80;;
45836;SDS011;31548;51.420;-0.040;2023-02-28T13:27:31;2.88;;;0.90;;
45836;SDS011;31548;51.420;-0.040;2023-02-28T13:30:00;1.60;;;0.70;;
45836;SDS011;31548;51.420;-0.040;2023-02-28T13:32:51;2.25;;;0.57;;
45836;SDS011;31548;51.420;-0.040;2023-02-28T13:38:42;3.20;;;1.10;;
45836;SDS011;31548;51.420;-0.040;2023-02-28T13:42:05;2.47;;;0.70;;
45836;SDS011;31548;51.420;-0.040;2023-02-28T13:49:18;7.85;;;1.13;;
45836;SDS011;31548;51.420;-0.040;2023-02-28T13:52:20;1.73;;;0.60;;
45836;SDS011;31548;51.420;-0.040;2023-02-28T13:57:35;0.98;;;0.50;;
45836;SDS011;31548;51.420;-0.040;2023-02-28T14:11:35;4.00;;;0.60;;
45836;SDS011;31548;51.420;-0.040;2023-02-28T14:14:05;2.65;;;0.50;;
45836;SDS011;31548;51.420;-0.040;2023-02-28T14:16:38;3.03;;;0.88;;
45836;SDS011;31548;51.420;-0.040;2023-02-28T14:19:25;2.58;;;0.90;;
45836;SDS011;31548;51.420;-0.040;2023-02-28T14:27:43;0.93;;;0.50;;
45836;SDS011;31548;51.420;-0.040;2023-02-28T14:33:14;3.08;;;0.75;;
45836;SDS011;31548;51.420;-0.040;2023-02-28T14:36:10;1.00;;;0.65;;
45836;SDS011;31548;51.420;-0.040;2023-02-28T14:38:45;1.52;;;0.77;;
45836;SDS011;31548;51.420;-0.040;2023-02-28T14:41:21;3.20;;;0.80;;
45836;SDS011;31548;51.420;-0.040;2023-02-28T14:44:00;4.10;;;0.60;;
45836;SDS011;31548;51.420;-0.040;2023-02-28T14:46:30;1.50;;;0.40;;
45836;SDS011;31548;51.420;-0.040;2023-02-28T14:49:05;1.05;;;0.50;;
45836;SDS011;31548;51.420;-0.040;2023-02-28T14:51:38;2.15;;;0.45;;
45836;SDS011;31548;51.420;-0.040;2023-02-28T14:54:06;2.28;;;0.30;;
45836;SDS011;31548;51.420;-0.040;2023-02-28T14:56:35;3.05;;;0.43;;
45836;SDS011;31548;51.420;-0.040;2023-02-28T14:59:05;1.23;;;0.43;;
45836;SDS011;31548;51.420;-0.040;2023-02-28T15:01:49;2.90;;;0.98;;
45836;SDS011;31548;51.420;-0.040;2023-02-28T15:04:26;2.67;;;0.60;;
45836;SDS011;31548;51.420;-0.040;2023-02-28T15:09:37;4.05;;;0.63;;
45836;SDS011;31548;51.420;-0.040;2023-02-28T15:12:05;1.67;;;0.50;;
45836;SDS011;31548;51.420;-0.040;2023-02-28T15:14:32;2.40;;;0.50;;
45836;SDS011;31548;51.420;-0.040;2023-02-28T15:17:08;1.05;;;0.50;;
45836;SDS011;31548;51.420;-0.040;2023-02-28T15:19:50;0.88;;;0.43;;
45836;SDS011;31548;51.420;-0.040;2023-02-28T15:22:21;3.70;;;0.50;;
45836;SDS011;31548;51.420;-0.040;2023-02-28T15:25:02;2.45;;;0.40;;
45836;SDS011;31548;51.420;-0.040;2023-02-28T15:27:32;1.85;;;0.40;;
45836;SDS011;31548;51.420;-0.040;2023-02-28T15:30:06;2.35;;;0.68;;
45836;SDS011;31548;51.420;-0.040;2023-02-28T15:32:40;3.35;;;0.82;;
45836;SDS011;31548;51.420;-0.040;2023-02-28T15:35:27;1.85;;;0.40;;
45836;SDS011;31548;51.420;-0.040;2023-02-28T15:38:18;0.68;;;0.40;;
45836;SDS011;31548;51.420;-0.040;2023-02-28T15:40:54;0.65;;;0.30;;
45836;SDS011;31548;51.420;-0.040;2023-02-28T15:43:24;1.38;;;0.50;;
45836;SDS011;31548;51.420;-0.040;2023-02-28T15:46:03;0.77;;;0.40;;
45836;SDS011;31548;51.420;-0.040;2023-02-28T15:48:51;3.25;;;0.47;;
45836;SDS011;31548;51.420;-0.040;2023-02-28T15:51:29;2.40;;;0.40;;
45836;SDS011;31548;51.420;-0.040;2023-02-28T15:54:08;1.38;;;0.63;;
45836;SDS011;31548;51.420;-0.040;2023-02-28T15:56:45;1.90;;;0.20;;
45836;SDS011;31548;51.420;-0.040;2023-02-28T15:59:15;0.63;;;0.30;;
45836;SDS011;31548;51.420;-0.040;2023-02-28T16:01:46;0.60;;;0.30;;
45836;SDS011;31548;51.420;-0.040;2023-02-28T16:04:18;2.05;;;0.30;;
45836;SDS011;31548;51.420;-0.040;2023-02-28T16:06:46;3.42;;;0.40;;
45836;SDS011;31548;51.420;-0.040;2023-02-28T16:09:31;0.77;;;0.50;;
45836;SDS011;31548;51.420;-0.040;2023-02-28T16:12:01;2.95;;;0.70;;
45836;SDS011;31548;51.420;-0.040;2023-02-28T16:14:29;2.92;;;0.85;;
45836;SDS011;31548;51.420;-0.040;2023-02-28T16:17:05;2.50;;;0.50;;
45836;SDS011;31548;51.420;-0.040;2023-02-28T16:19:35;1.13;;;0.40;;
45836;SDS011;31548;51.420;-0.040;2023-02-28T16:22:02;4.22;;;1.27;;
45836;SDS011;31548;51.420;-0.040;2023-02-28T16:24:30;0.93;;;0.70;;
45836;SDS011;31548;51.420;-0.040;2023-02-28T16:26:57;2.38;;;0.80;;
45836;SDS011;31548;51.420;-0.040;2023-02-28T16:29:32;2.72;;;1.13;;
45836;SDS011;31548;51.420;-0.040;2023-02-28T16:32:04;7.13;;;0.47;;
45836;SDS011;31548;51.420;-0.040;2023-02-28T16:34:32;4.93;;;0.60;;
45836;SDS011;31548;51.420;-0.040;2023-02-28T16:36:59;0.85;;;0.30;;
45836;SDS011;31548;51.420;-0.040;2023-02-28T16:39:27;0.20;;;0.20;;
45836;SDS011;31548;51.420;-0.040;2023-02-28T16:41:54;1.15;;;0.40;;
45836;SDS011;31548;51.420;-0.040;2023-02-28T16:44:28;0.30;;;0.30;;
45836;SDS011;31548;51.420;-0.040;2023-02-28T16:46:59;1.13;;;0.30;;
45836;SDS011;31548;51.420;-0.040;2023-02-28T16:49:27;3.35;;;0.60;;
45836;SDS011;31548;51.420;-0.040;2023-02-28T16:51:54;1.58;;;0.50;;
45836;SDS011;31548;51.420;-0.040;2023-02-28T16:54:22;1.95;;;1.17;;
45836;SDS011;31548;51.420;-0.040;2023-02-28T16:56:49;2.67;;;0.70;;
45836;SDS011;31548;51.420;-0.040;2023-02-28T16:59:22;1.25;;;0.40;;
45836;SDS011;31548;51.420;-0.040;2023-02-28T17:01:51;0.50;;;0.40;;
45836;SDS011;31548;51.420;-0.040;2023-02-28T17:04:19;0.60;;;0.30;;
45836;SDS011;31548;51.420;-0.040;2023-02-28T17:06:46;0.30;;;0.30;;
45836;SDS011;31548;51.420;-0.040;2023-02-28T17:09:15;0.45;;;0.28;;
45836;SDS011;31548;51.420;-0.040;2023-02-28T17:11:45;5.93;;;0.82;;
45836;SDS011;31548;51.420;-0.040;2023-02-28T17:14:14;18.05;;;3.08;;
45836;SDS011;31548;51.420;-0.040;2023-02-28T17:16:42;13.60;;;2.08;;
45836;SDS011;31548;51.420;-0.040;2023-02-28T17:19:14;8.57;;;1.33;;
45836;SDS011;31548;51.420;-0.040;2023-02-28T17:21:43;2.88;;;0.80;;
45836;SDS011;31548;51.420;-0.040;2023-02-28T17:24:11;3.25;;;1.00;;
45836;SDS011;31548;51.420;-0.040;2023-02-28T17:26:56;1.20;;;0.50;;
45836;SDS011;31548;51.420;-0.040;2023-02-28T17:29:23;5.28;;;0.40;;